sensor_id;sensor_type;location;lat;lon;timestamp;pressure;altitude;pressure_sealevel;temperature;humidity
84797;BME280;75028;51.374;21.078;2024-02-16T00:00:19;100094.69;;;5.90;83.13
84797;BME280;75028;51.374;21.078;2024-02-16T00:03:05;100087.88;;;5.88;83.52
84797;BME280;75028;51.374;21.078;2024-02-16T00:05:31;100082.63;;;5.88;81.96
84797;BME280;75028;51.374;21.078;2024-02-16T00:07:57;100081.03;;;5.85;84.39
84797;BME280;75028;51.374;21.078;2024-02-16T00:10:23;100086.91;;;5.89;82.52
84797;BME280;75028;51.374;21.078;2024-02-16T00:12:49;100082.88;;;5.97;81.63
84797;BME280;75028;51.374;21.078;2024-02-16T00:15:15;100071.06;;;5.90;82.02
84797;BME280;75028;51.374;21.078;2024-02-16T00:17:41;100084.19;;;5.90;81.15
84797;BME280;75028;51.374;21.078;2024-02-16T00:20:07;100090.22;;;5.92;82.16
84797;BME280;75028;51.374;21.078;2024-02-16T00:22:34;100093.13;;;5.88;82.82
84797;BME280;75028;51.374;21.078;2024-02-16T00:25:00;100090.31;;;5.91;84.00
84797;BME280;75028;51.374;21.078;2024-02-16T00:27:26;100089.53;;;5.89;81.35
84797;BME280;75028;51.374;21.078;2024-02-16T00:29:53;100079.06;;;5.89;81.33
84797;BME280;75028;51.374;21.078;2024-02-16T00:32:20;100084.97;;;5.92;81.35
84797;BME280;75028;51.374;21.078;2024-02-16T00:34:46;100086.53;;;5.95;82.94
84797;BME280;75028;51.374;21.078;2024-02-16T00:37:12;100090.41;;;5.89;85.14
84797;BME280;75028;51.374;21.078;2024-02-16T00:39:38;100087.59;;;5.92;82.46
84797;BME280;75028;51.374;21.078;2024-02-16T00:42:08;100085.72;;;5.94;82.70
84797;BME280;75028;51.374;21.078;2024-02-16T00:44:34;100083.72;;;5.98;81.41
84797;BME280;75028;51.374;21.078;2024-02-16T00:47:00;100080.25;;;5.97;81.35
84797;BME280;75028;51.374;21.078;2024-02-16T00:49:27;100087.94;;;6.00;80.33
84797;BME280;75028;51.374;21.078;2024-02-16T00:51:53;100081.28;;;5.95;80.95
84797;BME280;75028;51.374;21.078;2024-02-16T00:54:19;100085.59;;;5.96;81.36
84797;BME280;75028;51.374;21.078;2024-02-16T00:56:46;100075.50;;;5.90;82.01
84797;BME280;75028;51.374;21.078;2024-02-16T00:59:12;100064.16;;;5.89;82.48
84797;BME280;75028;51.374;21.078;2024-02-16T01:01:39;100069.03;;;5.95;80.57
84797;BME280;75028;51.374;21.078;2024-02-16T01:04:05;100065.34;;;5.98;81.36
84797;BME280;75028;51.374;21.078;2024-02-16T01:06:33;100072.38;;;5.97;80.72
84797;BME280;75028;51.374;21.078;2024-02-16T01:08:59;100065.19;;;5.87;81.40
84797;BME280;75028;51.374;21.078;2024-02-16T01:11:25;100066.16;;;5.86;81.74
84797;BME280;75028;51.374;21.078;2024-02-16T01:13:52;100069.78;;;5.83;82.91
84797;BME280;75028;51.374;21.078;2024-02-16T01:16:18;100066.34;;;5.83;81.71
84797;BME280;75028;51.374;21.078;2024-02-16T01:18:44;100066.50;;;5.80;82.80
84797;BME280;75028;51.374;21.078;2024-02-16T01:21:13;100063.38;;;5.73;82.27
84797;BME280;75028;51.374;21.078;2024-02-16T01:23:39;100056.75;;;5.82;82.71
84797;BME280;75028;51.374;21.078;2024-02-16T01:26:05;100061.63;;;5.88;81.46
84797;BME280;75028;51.374;21.078;2024-02-16T01:28:31;100058.16;;;5.87;80.48
84797;BME280;75028;51.374;21.078;2024-02-16T01:30:57;100053.56;;;5.91;80.45
84797;BME280;75028;51.374;21.078;2024-02-16T01:33:23;100056.00;;;5.94;80.75
84797;BME280;75028;51.374;21.078;2024-02-16T01:35:49;100051.88;;;5.90;81.85
84797;BME280;75028;51.374;21.078;2024-02-16T01:38:15;100051.88;;;5.90;80.29
84797;BME280;75028;51.374;21.078;2024-02-16T01:40:41;100056.94;;;5.93;81.56
84797;BME280;75028;51.374;21.078;2024-02-16T01:43:07;100047.38;;;5.92;82.65
84797;BME280;75028;51.374;21.078;2024-02-16T01:45:33;100046.44;;;5.93;80.56
84797;BME280;75028;51.374;21.078;2024-02-16T01:47:59;100040.53;;;5.89;80.35
84797;BME280;75028;51.374;21.078;2024-02-16T01:50:26;100043.16;;;5.89;80.63
84797;BME280;75028;51.374;21.078;2024-02-16T01:52:55;100044.00;;;5.90;80.23
84797;BME280;75028;51.374;21.078;2024-02-16T01:55:21;100039.03;;;5.85;80.29
84797;BME280;75028;51.374;21.078;2024-02-16T01:57:48;100034.06;;;5.81;80.71
84797;BME280;75028;51.374;21.078;2024-02-16T02:00:14;100038.28;;;5.83;81.94
84797;BME280;75028;51.374;21.078;2024-02-16T02:02:44;100032.13;;;5.84;81.36
84797;BME280;75028;51.374;21.078;2024-02-16T02:05:11;100033.03;;;5.83;81.65
84797;BME280;75028;51.374;21.078;2024-02-16T02:07:38;100033.78;;;5.85;80.50
84797;BME280;75028;51.374;21.078;2024-02-16T02:10:04;100021.63;;;5.84;83.92
84797;BME280;75028;51.374;21.078;2024-02-16T02:12:30;100026.97;;;5.83;81.45
84797;BME280;75028;51.374;21.078;2024-02-16T02:14:56;100028.81;;;5.81;82.85
84797;BME280;75028;51.374;21.078;2024-02-16T02:17:22;100027.94;;;5.80;81.24
84797;BME280;75028;51.374;21.078;2024-02-16T02:19:49;100022.91;;;5.77;81.69
84797;BME280;75028;51.374;21.078;2024-02-16T02:22:19;100021.31;;;5.75;83.19
84797;BME280;75028;51.374;21.078;2024-02-16T02:24:46;100020.41;;;5.76;81.78
84797;BME280;75028;51.374;21.078;2024-02-16T02:27:13;100017.53;;;5.79;81.42
84797;BME280;75028;51.374;21.078;2024-02-16T02:29:40;100015.63;;;5.82;80.67
84797;BME280;75028;51.374;21.078;2024-02-16T02:32:09;100008.84;;;5.78;82.08
84797;BME280;75028;51.374;21.078;2024-02-16T02:34:36;100015.88;;;5.78;81.41
84797;BME280;75028;51.374;21.078;2024-02-16T02:37:05;100020.16;;;5.79;81.27
84797;BME280;75028;51.374;21.078;2024-02-16T02:39:32;100020.28;;;5.77;80.74
84797;BME280;75028;51.374;21.078;2024-02-16T02:41:58;100018.78;;;5.73;81.85
84797;BME280;75028;51.374;21.078;2024-02-16T02:44:25;100012.53;;;5.76;82.66
84797;BME280;75028;51.374;21.078;2024-02-16T02:46:51;100025.63;;;5.62;82.87
84797;BME280;75028;51.374;21.078;2024-02-16T02:49:18;100017.28;;;5.69;82.51
84797;BME280;75028;51.374;21.078;2024-02-16T02:51:44;100022.44;;;5.71;81.52
84797;BME280;75028;51.374;21.078;2024-02-16T02:54:10;100026.84;;;5.70;83.33
84797;BME280;75028;51.374;21.078;2024-02-16T02:56:36;100029.88;;;5.64;81.24
84797;BME280;75028;51.374;21.078;2024-02-16T02:59:02;100030.69;;;5.65;83.81
84797;BME280;75028;51.374;21.078;2024-02-16T03:01:28;100033.22;;;5.66;82.72
84797;BME280;75028;51.374;21.078;2024-02-16T03:03:54;100022.72;;;5.66;82.75
84797;BME280;75028;51.374;21.078;2024-02-16T03:06:20;100032.75;;;5.74;81.85
84797;BME280;75028;51.374;21.078;2024-02-16T03:08:47;100027.22;;;5.78;82.13
84797;BME280;75028;51.374;21.078;2024-02-16T03:11:13;100023.75;;;5.78;82.11
84797;BME280;75028;51.374;21.078;2024-02-16T03:13:39;100025.53;;;5.77;81.98
84797;BME280;75028;51.374;21.078;2024-02-16T03:16:05;100003.06;;;5.59;81.91
84797;BME280;75028;51.374;21.078;2024-02-16T03:18:32;100026.66;;;5.73;81.41
84797;BME280;75028;51.374;21.078;2024-02-16T03:20:59;100028.56;;;5.71;81.60
84797;BME280;75028;51.374;21.078;2024-02-16T03:23:25;100020.78;;;5.70;81.78
84797;BME280;75028;51.374;21.078;2024-02-16T03:25:51;100027.63;;;5.58;81.71
84797;BME280;75028;51.374;21.078;2024-02-16T03:28:17;100023.31;;;5.57;82.44
84797;BME280;75028;51.374;21.078;2024-02-16T03:30:43;100030.00;;;5.49;84.46
84797;BME280;75028;51.374;21.078;2024-02-16T03:33:10;100034.38;;;5.48;82.91
84797;BME280;75028;51.374;21.078;2024-02-16T03:35:36;100036.06;;;5.49;81.85
84797;BME280;75028;51.374;21.078;2024-02-16T03:38:03;100033.63;;;5.46;82.01
84797;BME280;75028;51.374;21.078;2024-02-16T03:40:30;100033.72;;;5.45;82.56
84797;BME280;75028;51.374;21.078;2024-02-16T03:42:56;100037.75;;;5.36;83.46
84797;BME280;75028;51.374;21.078;2024-02-16T03:45:23;100032.22;;;5.26;83.76
84797;BME280;75028;51.374;21.078;2024-02-16T03:47:50;100039.44;;;5.09;83.84
84797;BME280;75028;51.374;21.078;2024-02-16T03:50:19;100037.66;;;4.95;85.28
84797;BME280;75028;51.374;21.078;2024-02-16T03:52:45;100043.50;;;4.85;85.72
84797;BME280;75028;51.374;21.078;2024-02-16T03:55:11;100038.53;;;4.80;87.19
84797;BME280;75028;51.374;21.078;2024-02-16T03:57:39;100038.44;;;4.68;85.75
84797;BME280;75028;51.374;21.078;2024-02-16T04:00:05;100043.84;;;4.65;86.30
84797;BME280;75028;51.374;21.078;2024-02-16T04:02:32;100043.66;;;4.68;87.08
84797;BME280;75028;51.374;21.078;2024-02-16T04:04:58;100033.09;;;4.69;85.16
84797;BME280;75028;51.374;21.078;2024-02-16T04:07:24;100034.69;;;4.72;85.10
84797;BME280;75028;51.374;21.078;2024-02-16T04:09:50;100031.34;;;4.70;85.87
84797;BME280;75028;51.374;21.078;2024-02-16T04:12:16;100025.69;;;4.62;85.62
84797;BME280;75028;51.374;21.078;2024-02-16T04:14:42;100022.25;;;4.61;85.81
84797;BME280;75028;51.374;21.078;2024-02-16T04:17:09;100025.13;;;4.57;85.41
84797;BME280;75028;51.374;21.078;2024-02-16T04:19:38;100029.97;;;4.49;85.69
84797;BME280;75028;51.374;21.078;2024-02-16T04:22:04;100014.28;;;4.33;86.77
84797;BME280;75028;51.374;21.078;2024-02-16T04:24:30;100033.94;;;4.40;85.88
84797;BME280;75028;51.374;21.078;2024-02-16T04:26:56;100023.84;;;4.34;86.04
84797;BME280;75028;51.374;21.078;2024-02-16T04:29:22;100032.59;;;4.33;85.84
84797;BME280;75028;51.374;21.078;2024-02-16T04:31:48;100021.25;;;4.19;87.27
84797;BME280;75028;51.374;21.078;2024-02-16T04:34:14;100020.34;;;4.04;87.16
84797;BME280;75028;51.374;21.078;2024-02-16T04:36:42;100031.72;;;3.88;87.87
84797;BME280;75028;51.374;21.078;2024-02-16T04:39:10;100035.88;;;3.76;87.99
84797;BME280;75028;51.374;21.078;2024-02-16T04:41:36;100026.25;;;3.77;87.88
84797;BME280;75028;51.374;21.078;2024-02-16T04:44:02;100036.88;;;3.58;88.45
84797;BME280;75028;51.374;21.078;2024-02-16T04:46:28;100031.47;;;3.46;89.22
84797;BME280;75028;51.374;21.078;2024-02-16T04:48:54;100033.31;;;3.44;88.75
84797;BME280;75028;51.374;21.078;2024-02-16T04:51:20;100025.72;;;3.39;89.43
84797;BME280;75028;51.374;21.078;2024-02-16T04:53:46;100027.25;;;3.43;88.93
84797;BME280;75028;51.374;21.078;2024-02-16T04:56:13;100027.59;;;3.53;88.38
84797;BME280;75028;51.374;21.078;2024-02-16T04:58:41;100025.56;;;3.58;87.92
84797;BME280;75028;51.374;21.078;2024-02-16T05:01:07;100030.38;;;3.50;88.05
84797;BME280;75028;51.374;21.078;2024-02-16T05:03:33;100026.75;;;3.52;87.74
84797;BME280;75028;51.374;21.078;2024-02-16T05:06:02;100033.81;;;3.35;88.59
84797;BME280;75028;51.374;21.078;2024-02-16T05:08:28;100028.16;;;3.27;89.77
84797;BME280;75028;51.374;21.078;2024-02-16T05:10:54;100033.22;;;3.30;88.67
84797;BME280;75028;51.374;21.078;2024-02-16T05:13:21;100035.47;;;3.20;89.10
84797;BME280;75028;51.374;21.078;2024-02-16T05:15:47;100025.78;;;3.22;89.26
84797;BME280;75028;51.374;21.078;2024-02-16T05:18:14;100027.78;;;3.17;89.13
84797;BME280;75028;51.374;21.078;2024-02-16T05:20:40;100026.59;;;3.07;89.24
84797;BME280;75028;51.374;21.078;2024-02-16T05:23:07;100028.44;;;3.05;89.74
84797;BME280;75028;51.374;21.078;2024-02-16T05:25:32;100031.13;;;3.04;90.55
84797;BME280;75028;51.374;21.078;2024-02-16T05:27:59;100031.91;;;3.06;89.44
84797;BME280;75028;51.374;21.078;2024-02-16T05:30:25;100029.16;;;2.92;90.42
84797;BME280;75028;51.374;21.078;2024-02-16T05:32:51;100026.41;;;2.78;90.47
84797;BME280;75028;51.374;21.078;2024-02-16T05:35:18;100037.75;;;2.94;90.04
84797;BME280;75028;51.374;21.078;2024-02-16T05:37:46;100008.53;;;2.70;90.39
84797;BME280;75028;51.374;21.078;2024-02-16T05:40:17;100033.78;;;2.69;90.79
84797;BME280;75028;51.374;21.078;2024-02-16T05:42:57;100044.22;;;2.52;91.82
84797;BME280;75028;51.374;21.078;2024-02-16T05:45:24;100039.63;;;2.40;91.73
84797;BME280;75028;51.374;21.078;2024-02-16T05:47:52;100039.47;;;2.43;92.80
84797;BME280;75028;51.374;21.078;2024-02-16T05:50:20;100037.31;;;2.34;92.40
84797;BME280;75028;51.374;21.078;2024-02-16T05:52:46;100041.75;;;2.32;93.24
84797;BME280;75028;51.374;21.078;2024-02-16T05:55:12;100045.72;;;2.22;93.20
84797;BME280;75028;51.374;21.078;2024-02-16T05:57:41;100042.53;;;2.34;93.69
84797;BME280;75028;51.374;21.078;2024-02-16T06:00:08;100041.75;;;2.49;92.16
84797;BME280;75028;51.374;21.078;2024-02-16T06:02:35;100048.75;;;2.32;92.45
84797;BME280;75028;51.374;21.078;2024-02-16T06:05:02;100049.56;;;2.32;93.40
84797;BME280;75028;51.374;21.078;2024-02-16T06:07:29;100051.59;;;2.44;93.04
84797;BME280;75028;51.374;21.078;2024-02-16T06:09:56;100056.53;;;2.50;92.79
84797;BME280;75028;51.374;21.078;2024-02-16T06:12:22;100056.97;;;2.41;92.93
84797;BME280;75028;51.374;21.078;2024-02-16T06:14:48;100055.13;;;2.43;93.20
84797;BME280;75028;51.374;21.078;2024-02-16T06:17:15;100061.41;;;2.39;92.85
84797;BME280;75028;51.374;21.078;2024-02-16T06:19:42;100060.81;;;2.34;92.90
84797;BME280;75028;51.374;21.078;2024-02-16T06:22:10;100058.19;;;2.34;93.35
84797;BME280;75028;51.374;21.078;2024-02-16T06:24:37;100073.00;;;2.51;93.05
84797;BME280;75028;51.374;21.078;2024-02-16T06:27:04;100067.34;;;2.43;93.01
84797;BME280;75028;51.374;21.078;2024-02-16T06:29:30;100071.53;;;2.45;92.69
84797;BME280;75028;51.374;21.078;2024-02-16T06:31:57;100067.47;;;2.40;93.40
84797;BME280;75028;51.374;21.078;2024-02-16T06:34:23;100074.94;;;2.47;92.96
84797;BME280;75028;51.374;21.078;2024-02-16T06:36:49;100076.41;;;2.53;92.57
84797;BME280;75028;51.374;21.078;2024-02-16T06:39:16;100083.78;;;2.62;92.86
84797;BME280;75028;51.374;21.078;2024-02-16T06:41:45;100083.72;;;2.81;91.25
84797;BME280;75028;51.374;21.078;2024-02-16T06:44:15;100083.78;;;2.96;91.28
84797;BME280;75028;51.374;21.078;2024-02-16T06:46:42;100082.78;;;2.99;90.54
84797;BME280;75028;51.374;21.078;2024-02-16T06:49:08;100085.66;;;3.10;89.80
84797;BME280;75028;51.374;21.078;2024-02-16T06:51:35;100082.50;;;3.20;89.71
84797;BME280;75028;51.374;21.078;2024-02-16T06:54:05;100080.41;;;3.27;90.89
84797;BME280;75028;51.374;21.078;2024-02-16T06:56:32;100073.78;;;3.37;89.82
84797;BME280;75028;51.374;21.078;2024-02-16T06:58:58;100069.66;;;3.48;88.33
84797;BME280;75028;51.374;21.078;2024-02-16T07:01:25;100074.19;;;3.62;88.01
84797;BME280;75028;51.374;21.078;2024-02-16T07:03:53;100075.84;;;3.63;89.00
84797;BME280;75028;51.374;21.078;2024-02-16T07:06:19;100078.63;;;3.60;89.38
84797;BME280;75028;51.374;21.078;2024-02-16T07:08:45;100066.44;;;3.76;88.43
84797;BME280;75028;51.374;21.078;2024-02-16T07:11:11;100072.06;;;3.84;87.07
84797;BME280;75028;51.374;21.078;2024-02-16T07:13:37;100067.53;;;3.87;87.93
84797;BME280;75028;51.374;21.078;2024-02-16T07:16:04;100069.13;;;3.90;87.05
84797;BME280;75028;51.374;21.078;2024-02-16T07:18:35;100063.56;;;3.96;87.22
84797;BME280;75028;51.374;21.078;2024-02-16T07:21:02;100060.94;;;4.11;88.44
84797;BME280;75028;51.374;21.078;2024-02-16T07:23:28;100057.28;;;4.14;86.31
84797;BME280;75028;51.374;21.078;2024-02-16T07:25:55;100059.50;;;4.21;86.62
84797;BME280;75028;51.374;21.078;2024-02-16T07:28:25;100064.88;;;4.34;85.75
84797;BME280;75028;51.374;21.078;2024-02-16T07:30:55;100060.13;;;4.40;86.94
84797;BME280;75028;51.374;21.078;2024-02-16T07:33:21;100057.75;;;4.51;85.80
84797;BME280;75028;51.374;21.078;2024-02-16T07:35:47;100064.22;;;4.60;85.91
84797;BME280;75028;51.374;21.078;2024-02-16T07:38:14;100052.19;;;4.71;85.20
84797;BME280;75028;51.374;21.078;2024-02-16T07:40:41;100063.53;;;4.86;86.18
84797;BME280;75028;51.374;21.078;2024-02-16T07:43:07;100061.88;;;4.99;84.12
84797;BME280;75028;51.374;21.078;2024-02-16T07:45:34;100065.91;;;5.04;83.79
84797;BME280;75028;51.374;21.078;2024-02-16T07:48:00;100059.84;;;5.18;84.31
84797;BME280;75028;51.374;21.078;2024-02-16T07:50:31;100062.19;;;5.22;82.59
84797;BME280;75028;51.374;21.078;2024-02-16T07:52:57;100064.25;;;5.60;81.83
84797;BME280;75028;51.374;21.078;2024-02-16T07:55:24;100065.25;;;5.99;80.96
84797;BME280;75028;51.374;21.078;2024-02-16T07:57:52;100064.97;;;6.30;78.09
84797;BME280;75028;51.374;21.078;2024-02-16T08:00:19;100071.38;;;6.26;78.70
84797;BME280;75028;51.374;21.078;2024-02-16T08:02:45;100067.22;;;6.36;78.18
84797;BME280;75028;51.374;21.078;2024-02-16T08:05:12;100073.22;;;6.38;77.80
84797;BME280;75028;51.374;21.078;2024-02-16T08:07:41;100070.94;;;6.20;79.42
84797;BME280;75028;51.374;21.078;2024-02-16T08:10:09;100074.69;;;6.16;79.91
84797;BME280;75028;51.374;21.078;2024-02-16T08:12:36;100067.84;;;6.13;80.73
84797;BME280;75028;51.374;21.078;2024-02-16T08:15:05;100074.91;;;6.13;80.11
84797;BME280;75028;51.374;21.078;2024-02-16T08:17:34;100082.56;;;6.16;80.48
84797;BME280;75028;51.374;21.078;2024-02-16T08:20:02;100067.59;;;6.04;81.56
84797;BME280;75028;51.374;21.078;2024-02-16T08:22:30;100070.00;;;6.21;81.29
84797;BME280;75028;51.374;21.078;2024-02-16T08:24:56;100058.53;;;6.22;80.34
84797;BME280;75028;51.374;21.078;2024-02-16T08:27:22;100067.59;;;6.30;80.02
84797;BME280;75028;51.374;21.078;2024-02-16T08:29:48;100069.84;;;6.36;80.43
84797;BME280;75028;51.374;21.078;2024-02-16T08:32:14;100064.47;;;6.38;80.65
84797;BME280;75028;51.374;21.078;2024-02-16T08:34:42;100065.16;;;6.41;79.95
84797;BME280;75028;51.374;21.078;2024-02-16T08:37:08;100062.94;;;6.48;78.83
84797;BME280;75028;51.374;21.078;2024-02-16T08:39:37;100062.56;;;6.54;79.26
84797;BME280;75028;51.374;21.078;2024-02-16T08:42:03;100049.75;;;6.62;81.42
84797;BME280;75028;51.374;21.078;2024-02-16T08:44:29;100051.38;;;6.77;79.02
84797;BME280;75028;51.374;21.078;2024-02-16T08:46:56;100054.22;;;6.86;78.90
84797;BME280;75028;51.374;21.078;2024-02-16T08:49:22;100042.63;;;6.89;79.05
84797;BME280;75028;51.374;21.078;2024-02-16T08:51:48;100056.66;;;7.02;79.44
84797;BME280;75028;51.374;21.078;2024-02-16T08:54:14;100046.78;;;7.05;79.09
84797;BME280;75028;51.374;21.078;2024-02-16T08:56:40;100049.16;;;7.08;79.88
84797;BME280;75028;51.374;21.078;2024-02-16T08:59:06;100054.56;;;7.19;79.88
84797;BME280;75028;51.374;21.078;2024-02-16T09:01:37;100052.63;;;7.34;78.43
84797;BME280;75028;51.374;21.078;2024-02-16T09:04:03;100049.81;;;7.49;77.60
84797;BME280;75028;51.374;21.078;2024-02-16T09:06:30;100053.47;;;7.59;78.12
84797;BME280;75028;51.374;21.078;2024-02-16T09:08:56;100040.63;;;7.55;78.40
84797;BME280;75028;51.374;21.078;2024-02-16T09:11:23;100058.81;;;7.70;77.58
84797;BME280;75028;51.374;21.078;2024-02-16T09:13:49;100048.78;;;7.75;78.10
84797;BME280;75028;51.374;21.078;2024-02-16T09:16:15;100059.66;;;7.83;77.33
84797;BME280;75028;51.374;21.078;2024-02-16T09:18:42;100042.78;;;7.86;78.00
84797;BME280;75028;51.374;21.078;2024-02-16T09:21:08;100044.88;;;7.94;77.14
84797;BME280;75028;51.374;21.078;2024-02-16T09:23:36;100048.63;;;8.02;77.38
84797;BME280;75028;51.374;21.078;2024-02-16T09:26:02;100056.94;;;8.09;77.42
84797;BME280;75028;51.374;21.078;2024-02-16T09:28:28;100056.72;;;8.12;76.81
84797;BME280;75028;51.374;21.078;2024-02-16T09:30:55;100056.38;;;8.16;77.53
84797;BME280;75028;51.374;21.078;2024-02-16T09:33:22;100044.28;;;8.14;76.82
84797;BME280;75028;51.374;21.078;2024-02-16T09:35:50;100045.19;;;8.25;79.28
84797;BME280;75028;51.374;21.078;2024-02-16T09:38:17;100046.38;;;8.45;77.80
84797;BME280;75028;51.374;21.078;2024-02-16T09:40:45;100055.91;;;8.58;76.47
84797;BME280;75028;51.374;21.078;2024-02-16T09:43:21;100050.41;;;8.61;77.14
84797;BME280;75028;51.374;21.078;2024-02-16T09:45:52;100041.94;;;8.69;76.33
84797;BME280;75028;51.374;21.078;2024-02-16T09:48:18;100039.44;;;8.78;76.06
84797;BME280;75028;51.374;21.078;2024-02-16T09:50:45;100042.47;;;8.85;76.58
84797;BME280;75028;51.374;21.078;2024-02-16T09:53:12;100037.44;;;8.93;76.47
84797;BME280;75028;51.374;21.078;2024-02-16T09:55:39;100047.91;;;9.05;76.09
84797;BME280;75028;51.374;21.078;2024-02-16T09:58:05;100046.63;;;9.55;76.32
84797;BME280;75028;51.374;21.078;2024-02-16T10:00:31;100039.22;;;9.49;76.61
84797;BME280;75028;51.374;21.078;2024-02-16T10:02:57;100043.75;;;9.69;74.83
84797;BME280;75028;51.374;21.078;2024-02-16T10:05:23;100037.84;;;10.09;74.23
84797;BME280;75028;51.374;21.078;2024-02-16T10:07:49;100039.72;;;10.61;73.85
84797;BME280;75028;51.374;21.078;2024-02-16T10:10:26;100041.97;;;10.97;70.43
84797;BME280;75028;51.374;21.078;2024-02-16T10:15:30;100043.50;;;11.50;67.90
84797;BME280;75028;51.374;21.078;2024-02-16T10:18:06;100039.22;;;11.79;71.47
84797;BME280;75028;51.374;21.078;2024-02-16T10:20:34;100049.56;;;11.92;68.44
84797;BME280;75028;51.374;21.078;2024-02-16T10:23:05;100051.53;;;11.90;67.18
84797;BME280;75028;51.374;21.078;2024-02-16T10:25:30;100041.00;;;11.79;67.26
84797;BME280;75028;51.374;21.078;2024-02-16T10:27:57;100037.03;;;11.94;67.01
84797;BME280;75028;51.374;21.078;2024-02-16T10:30:29;100039.34;;;12.36;68.10
84797;BME280;75028;51.374;21.078;2024-02-16T10:32:59;100030.69;;;12.53;65.98
84797;BME280;75028;51.374;21.078;2024-02-16T10:35:25;100032.53;;;12.62;65.15
84797;BME280;75028;51.374;21.078;2024-02-16T10:37:55;100029.59;;;13.04;65.41
84797;BME280;75028;51.374;21.078;2024-02-16T10:40:22;100032.34;;;13.21;62.13
84797;BME280;75028;51.374;21.078;2024-02-16T10:42:49;100028.53;;;13.33;63.12
84797;BME280;75028;51.374;21.078;2024-02-16T10:45:16;100020.06;;;13.57;62.96
84797;BME280;75028;51.374;21.078;2024-02-16T10:47:43;100007.69;;;13.75;61.02
84797;BME280;75028;51.374;21.078;2024-02-16T10:50:09;100009.91;;;13.79;60.32
84797;BME280;75028;51.374;21.078;2024-02-16T10:52:37;100010.69;;;13.53;60.47
84797;BME280;75028;51.374;21.078;2024-02-16T10:55:05;100000.44;;;13.67;61.45
84797;BME280;75028;51.374;21.078;2024-02-16T10:57:32;100004.94;;;14.11;62.62
84797;BME280;75028;51.374;21.078;2024-02-16T11:00:00;99990.97;;;14.09;58.30
84797;BME280;75028;51.374;21.078;2024-02-16T11:02:32;99986.25;;;13.76;59.59
84797;BME280;75028;51.374;21.078;2024-02-16T11:04:58;99984.03;;;13.72;59.33
84797;BME280;75028;51.374;21.078;2024-02-16T11:07:25;99987.19;;;13.58;61.47
84797;BME280;75028;51.374;21.078;2024-02-16T11:09:50;99983.03;;;13.46;62.24
84797;BME280;75028;51.374;21.078;2024-02-16T11:12:16;99982.75;;;13.49;62.35
84797;BME280;75028;51.374;21.078;2024-02-16T11:14:43;99983.13;;;13.27;60.21
84797;BME280;75028;51.374;21.078;2024-02-16T11:17:13;99973.69;;;13.05;61.86
84797;BME280;75028;51.374;21.078;2024-02-16T11:19:44;99967.81;;;12.92;62.46
84797;BME280;75028;51.374;21.078;2024-02-16T11:22:15;99959.88;;;12.82;62.08
84797;BME280;75028;51.374;21.078;2024-02-16T11:24:59;99962.53;;;12.63;62.77
84797;BME280;75028;51.374;21.078;2024-02-16T11:27:27;99963.81;;;12.59;63.94
84797;BME280;75028;51.374;21.078;2024-02-16T11:29:58;99964.03;;;12.75;63.76
84797;BME280;75028;51.374;21.078;2024-02-16T11:32:26;99962.53;;;12.63;65.04
84797;BME280;75028;51.374;21.078;2024-02-16T11:34:52;99951.25;;;12.42;62.89
84797;BME280;75028;51.374;21.078;2024-02-16T11:37:18;99950.94;;;12.36;62.99
84797;BME280;75028;51.374;21.078;2024-02-16T11:39:45;99940.63;;;12.33;65.31
84797;BME280;75028;51.374;21.078;2024-02-16T11:42:13;99956.94;;;12.47;63.32
84797;BME280;75028;51.374;21.078;2024-02-16T11:44:53;99940.63;;;12.42;62.06
84797;BME280;75028;51.374;21.078;2024-02-16T11:47:20;99931.41;;;12.46;63.65
84797;BME280;75028;51.374;21.078;2024-02-16T11:50:07;99943.97;;;12.54;63.86
84797;BME280;75028;51.374;21.078;2024-02-16T11:52:40;99936.41;;;12.78;64.60
84797;BME280;75028;51.374;21.078;2024-02-16T11:55:10;99932.28;;;12.93;62.68
84797;BME280;75028;51.374;21.078;2024-02-16T11:57:38;99922.50;;;13.03;62.46
84797;BME280;75028;51.374;21.078;2024-02-16T12:00:05;99932.44;;;13.38;63.71
84797;BME280;75028;51.374;21.078;2024-02-16T12:02:35;99927.75;;;13.22;60.86
84797;BME280;75028;51.374;21.078;2024-02-16T12:05:02;99928.56;;;13.23;61.19
84797;BME280;75028;51.374;21.078;2024-02-16T12:07:29;99910.03;;;13.13;61.26
84797;BME280;75028;51.374;21.078;2024-02-16T12:09:59;99915.91;;;13.17;61.34
84797;BME280;75028;51.374;21.078;2024-02-16T12:12:25;99910.31;;;13.10;61.74
84797;BME280;75028;51.374;21.078;2024-02-16T12:14:55;99906.28;;;13.06;61.00
84797;BME280;75028;51.374;21.078;2024-02-16T12:17:21;99919.00;;;13.03;60.56
84797;BME280;75028;51.374;21.078;2024-02-16T12:19:47;99907.00;;;12.99;60.82
84797;BME280;75028;51.374;21.078;2024-02-16T12:22:22;99912.31;;;12.99;61.18
84797;BME280;75028;51.374;21.078;2024-02-16T12:24:49;99907.00;;;12.99;61.78
84797;BME280;75028;51.374;21.078;2024-02-16T12:27:18;99899.13;;;13.16;61.92
84797;BME280;75028;51.374;21.078;2024-02-16T12:29:44;99894.50;;;13.18;60.36
84797;BME280;75028;51.374;21.078;2024-02-16T12:32:10;99895.44;;;13.27;60.12
84797;BME280;75028;51.374;21.078;2024-02-16T12:34:37;99891.16;;;13.43;61.93
84797;BME280;75028;51.374;21.078;2024-02-16T12:37:06;99881.75;;;13.49;61.28
84797;BME280;75028;51.374;21.078;2024-02-16T12:39:34;99881.50;;;13.69;60.05
84797;BME280;75028;51.374;21.078;2024-02-16T12:42:01;99885.28;;;13.84;60.40
84797;BME280;75028;51.374;21.078;2024-02-16T12:44:28;99880.28;;;13.64;59.89
84797;BME280;75028;51.374;21.078;2024-02-16T12:46:54;99879.88;;;13.59;61.25
84797;BME280;75028;51.374;21.078;2024-02-16T12:49:20;99887.03;;;13.76;61.03
84797;BME280;75028;51.374;21.078;2024-02-16T12:51:49;99887.91;;;13.67;60.15